sensor_id;sensor_type;location;lat;lon;timestamp;P1;durP1;ratioP1;P2;durP2;ratioP2
67640;SDS011;54434;50.096;20.082;2023-03-01T00:02:19;76.10;;;29.50;;
67640;SDS011;54434;50.096;20.082;2023-03-01T00:04:56;76.60;;;28.90;;
67640;SDS011;54434;50.096;20.082;2023-03-01T00:07:32;80.60;;;27.70;;
67640;SDS011;54434;50.096;20.082;2023-03-01T00:10:12;78.20;;;29.10;;
67640;SDS011;54434;50.096;20.082;2023-03-01T00:12:49;74.80;;;28.20;;
67640;SDS011;54434;50.096;20.082;2023-03-01T00:15:25;75.90;;;29.50;;
67640;SDS011;54434;50.096;20.082;2023-03-01T00:18:02;76.50;;;28.70;;
67640;SDS011;54434;50.096;20.082;2023-03-01T00:20:38;78.00;;;29.40;;
67640;SDS011;54434;50.096;20.082;2023-03-01T00:23:15;79.00;;;29.90;;
67640;SDS011;54434;50.096;20.082;2023-03-01T00:25:51;74.50;;;28.20;;
67640;SDS011;54434;50.096;20.082;2023-03-01T00:28:28;72.70;;;27.50;;
67640;SDS011;54434;50.096;20.082;2023-03-01T00:31:09;79.60;;;29.60;;
67640;SDS011;54434;50.096;20.082;2023-03-01T00:36:23;72.50;;;26.00;;
67640;SDS011;54434;50.096;20.082;2023-03-01T00:39:02;74.60;;;28.40;;
67640;SDS011;54434;50.096;20.082;2023-03-01T00:41:40;72.10;;;27.00;;
67640;SDS011;54434;50.096;20.082;2023-03-01T00:44:17;67.50;;;26.10;;
67640;SDS011;54434;50.096;20.082;2023-03-01T00:46:55;66.90;;;26.60;;
67640;SDS011;54434;50.096;20.082;2023-03-01T00:49:32;73.80;;;27.90;;
67640;SDS011;54434;50.096;20.082;2023-03-01T00:52:08;68.30;;;26.60;;
67640;SDS011;54434;50.096;20.082;2023-03-01T00:54:45;67.70;;;26.80;;
67640;SDS011;54434;50.096;20.082;2023-03-01T00:57:21;76.40;;;28.20;;
67640;SDS011;54434;50.096;20.082;2023-03-01T00:59:58;74.20;;;28.40;;
67640;SDS011;54434;50.096;20.082;2023-03-01T01:02:36;70.60;;;26.70;;
67640;SDS011;54434;50.096;20.082;2023-03-01T01:05:14;67.50;;;26.20;;
67640;SDS011;54434;50.096;20.082;2023-03-01T01:07:54;73.30;;;27.70;;
67640;SDS011;54434;50.096;20.082;2023-03-01T01:10:30;63.70;;;26.10;;
67640;SDS011;54434;50.096;20.082;2023-03-01T01:13:09;72.50;;;26.60;;
67640;SDS011;54434;50.096;20.082;2023-03-01T01:15:46;70.80;;;27.00;;
67640;SDS011;54434;50.096;20.082;2023-03-01T01:18:22;76.90;;;26.80;;
67640;SDS011;54434;50.096;20.082;2023-03-01T01:21:02;68.90;;;26.60;;
67640;SDS011;54434;50.096;20.082;2023-03-01T01:23:41;71.00;;;26.30;;
67640;SDS011;54434;50.096;20.082;2023-03-01T01:26:20;70.40;;;26.40;;
67640;SDS011;54434;50.096;20.082;2023-03-01T01:28:58;68.80;;;26.60;;
67640;SDS011;54434;50.096;20.082;2023-03-01T01:31:36;76.10;;;26.70;;
67640;SDS011;54434;50.096;20.082;2023-03-01T01:34:19;72.80;;;28.30;;
67640;SDS011;54434;50.096;20.082;2023-03-01T01:36:56;71.20;;;26.60;;
67640;SDS011;54434;50.096;20.082;2023-03-01T01:39:36;66.80;;;26.50;;
67640;SDS011;54434;50.096;20.082;2023-03-01T01:42:17;66.80;;;26.30;;
67640;SDS011;54434;50.096;20.082;2023-03-01T01:45:30;74.00;;;26.80;;
67640;SDS011;54434;50.096;20.082;2023-03-01T01:48:13;71.30;;;26.70;;
67640;SDS011;54434;50.096;20.082;2023-03-01T01:50:59;68.10;;;26.00;;
67640;SDS011;54434;50.096;20.082;2023-03-01T01:53:38;75.60;;;26.90;;
67640;SDS011;54434;50.096;20.082;2023-03-01T01:56:17;78.20;;;27.80;;
67640;SDS011;54434;50.096;20.082;2023-03-01T01:58:55;71.20;;;27.30;;
67640;SDS011;54434;50.096;20.082;2023-03-01T02:01:32;74.40;;;29.20;;
67640;SDS011;54434;50.096;20.082;2023-03-01T02:04:09;76.10;;;28.20;;
67640;SDS011;54434;50.096;20.082;2023-03-01T02:06:51;78.30;;;29.00;;
67640;SDS011;54434;50.096;20.082;2023-03-01T02:09:35;78.90;;;28.00;;
67640;SDS011;54434;50.096;20.082;2023-03-01T02:12:12;73.30;;;28.40;;
67640;SDS011;54434;50.096;20.082;2023-03-01T02:14:51;84.80;;;29.80;;
67640;SDS011;54434;50.096;20.082;2023-03-01T02:17:28;80.20;;;28.50;;
67640;SDS011;54434;50.096;20.082;2023-03-01T02:20:14;75.40;;;29.70;;
67640;SDS011;54434;50.096;20.082;2023-03-01T02:22:57;74.30;;;28.10;;
67640;SDS011;54434;50.096;20.082;2023-03-01T02:25:43;89.90;;;31.30;;
67640;SDS011;54434;50.096;20.082;2023-03-01T02:28:31;75.10;;;28.40;;
67640;SDS011;54434;50.096;20.082;2023-03-01T02:31:10;72.00;;;26.20;;
67640;SDS011;54434;50.096;20.082;2023-03-01T02:34:08;78.80;;;28.80;;
67640;SDS011;54434;50.096;20.082;2023-03-01T02:36:49;83.60;;;30.00;;
67640;SDS011;54434;50.096;20.082;2023-03-01T02:39:33;78.70;;;30.10;;
67640;SDS011;54434;50.096;20.082;2023-03-01T02:42:18;77.30;;;29.40;;
67640;SDS011;54434;50.096;20.082;2023-03-01T02:44:59;78.70;;;30.90;;
67640;SDS011;54434;50.096;20.082;2023-03-01T02:47:36;84.00;;;30.10;;
67640;SDS011;54434;50.096;20.082;2023-03-01T02:50:43;81.90;;;30.00;;
67640;SDS011;54434;50.096;20.082;2023-03-01T02:53:38;81.50;;;29.80;;
67640;SDS011;54434;50.096;20.082;2023-03-01T02:56:19;75.00;;;28.40;;
67640;SDS011;54434;50.096;20.082;2023-03-01T02:58:57;82.80;;;31.30;;
67640;SDS011;54434;50.096;20.082;2023-03-01T03:01:34;81.60;;;31.60;;
67640;SDS011;54434;50.096;20.082;2023-03-01T03:04:16;83.30;;;31.90;;
67640;SDS011;54434;50.096;20.082;2023-03-01T03:06:54;83.70;;;30.70;;
67640;SDS011;54434;50.096;20.082;2023-03-01T03:09:31;89.30;;;32.60;;
67640;SDS011;54434;50.096;20.082;2023-03-01T03:12:08;77.10;;;30.50;;
67640;SDS011;54434;50.096;20.082;2023-03-01T03:14:45;84.50;;;29.70;;
67640;SDS011;54434;50.096;20.082;2023-03-01T03:17:22;84.20;;;31.20;;
67640;SDS011;54434;50.096;20.082;2023-03-01T03:19:59;81.30;;;31.50;;
67640;SDS011;54434;50.096;20.082;2023-03-01T03:22:36;74.00;;;28.50;;
67640;SDS011;54434;50.096;20.082;2023-03-01T03:25:13;84.00;;;30.20;;
67640;SDS011;54434;50.096;20.082;2023-03-01T03:27:52;80.40;;;30.10;;
67640;SDS011;54434;50.096;20.082;2023-03-01T03:30:31;89.40;;;32.10;;
67640;SDS011;54434;50.096;20.082;2023-03-01T03:33:08;76.30;;;30.00;;
67640;SDS011;54434;50.096;20.082;2023-03-01T03:35:49;85.40;;;30.60;;
67640;SDS011;54434;50.096;20.082;2023-03-01T03:38:26;93.40;;;32.40;;
67640;SDS011;54434;50.096;20.082;2023-03-01T03:41:07;80.40;;;30.20;;
67640;SDS011;54434;50.096;20.082;2023-03-01T03:43:44;76.60;;;28.50;;
67640;SDS011;54434;50.096;20.082;2023-03-01T03:46:22;85.10;;;29.80;;
67640;SDS011;54434;50.096;20.082;2023-03-01T03:48:59;80.30;;;30.80;;
67640;SDS011;54434;50.096;20.082;2023-03-01T03:51:35;83.70;;;34.20;;
67640;SDS011;54434;50.096;20.082;2023-03-01T03:54:12;81.70;;;29.80;;
67640;SDS011;54434;50.096;20.082;2023-03-01T03:56:49;71.10;;;28.80;;
67640;SDS011;54434;50.096;20.082;2023-03-01T03:59:25;81.00;;;30.90;;
67640;SDS011;54434;50.096;20.082;2023-03-01T04:02:03;82.20;;;30.80;;
67640;SDS011;54434;50.096;20.082;2023-03-01T04:04:42;74.80;;;30.10;;
67640;SDS011;54434;50.096;20.082;2023-03-01T04:07:18;72.40;;;29.30;;
67640;SDS011;54434;50.096;20.082;2023-03-01T04:09:55;85.00;;;30.90;;
67640;SDS011;54434;50.096;20.082;2023-03-01T04:12:31;81.60;;;30.90;;
67640;SDS011;54434;50.096;20.082;2023-03-01T04:15:11;75.00;;;29.50;;
67640;SDS011;54434;50.096;20.082;2023-03-01T04:17:48;65.60;;;27.40;;
67640;SDS011;54434;50.096;20.082;2023-03-01T04:20:28;77.10;;;27.90;;
67640;SDS011;54434;50.096;20.082;2023-03-01T04:23:09;80.90;;;28.40;;
67640;SDS011;54434;50.096;20.082;2023-03-01T04:25:51;77.90;;;29.20;;
67640;SDS011;54434;50.096;20.082;2023-03-01T04:28:30;75.30;;;28.00;;
67640;SDS011;54434;50.096;20.082;2023-03-01T04:31:10;77.50;;;28.30;;
67640;SDS011;54434;50.096;20.082;2023-03-01T04:33:52;81.90;;;27.70;;
67640;SDS011;54434;50.096;20.082;2023-03-01T04:36:30;70.60;;;28.10;;
67640;SDS011;54434;50.096;20.082;2023-03-01T04:39:09;78.00;;;27.00;;
67640;SDS011;54434;50.096;20.082;2023-03-01T04:41:46;72.70;;;25.90;;
67640;SDS011;54434;50.096;20.082;2023-03-01T04:44:22;64.00;;;24.70;;
67640;SDS011;54434;50.096;20.082;2023-03-01T04:46:59;72.90;;;27.00;;
67640;SDS011;54434;50.096;20.082;2023-03-01T04:49:35;74.80;;;27.70;;
67640;SDS011;54434;50.096;20.082;2023-03-01T04:52:14;66.90;;;27.70;;
67640;SDS011;54434;50.096;20.082;2023-03-01T04:54:51;74.90;;;29.40;;
67640;SDS011;54434;50.096;20.082;2023-03-01T04:57:27;70.80;;;27.10;;
67640;SDS011;54434;50.096;20.082;2023-03-01T05:00:05;133.00;;;43.50;;
67640;SDS011;54434;50.096;20.082;2023-03-01T05:02:56;96.80;;;35.80;;
67640;SDS011;54434;50.096;20.082;2023-03-01T05:05:37;73.60;;;29.10;;
67640;SDS011;54434;50.096;20.082;2023-03-01T05:08:14;84.50;;;28.80;;
67640;SDS011;54434;50.096;20.082;2023-03-01T05:10:53;77.40;;;27.90;;
67640;SDS011;54434;50.096;20.082;2023-03-01T05:13:30;78.20;;;28.30;;
67640;SDS011;54434;50.096;20.082;2023-03-01T05:16:08;84.80;;;29.30;;
67640;SDS011;54434;50.096;20.082;2023-03-01T05:18:46;71.80;;;27.30;;
67640;SDS011;54434;50.096;20.082;2023-03-01T05:21:24;81.20;;;28.30;;
67640;SDS011;54434;50.096;20.082;2023-03-01T05:24:00;78.20;;;28.60;;
67640;SDS011;54434;50.096;20.082;2023-03-01T05:26:37;84.80;;;28.40;;
67640;SDS011;54434;50.096;20.082;2023-03-01T05:29:15;77.90;;;29.50;;
67640;SDS011;54434;50.096;20.082;2023-03-01T05:31:53;80.20;;;28.00;;
67640;SDS011;54434;50.096;20.082;2023-03-01T05:34:34;71.10;;;26.40;;
67640;SDS011;54434;50.096;20.082;2023-03-01T05:37:12;67.60;;;27.00;;
67640;SDS011;54434;50.096;20.082;2023-03-01T05:39:48;71.20;;;27.00;;
67640;SDS011;54434;50.096;20.082;2023-03-01T05:42:24;72.50;;;26.60;;
67640;SDS011;54434;50.096;20.082;2023-03-01T05:45:01;68.90;;;27.30;;
67640;SDS011;54434;50.096;20.082;2023-03-01T05:47:44;71.40;;;26.30;;
67640;SDS011;54434;50.096;20.082;2023-03-01T05:50:23;71.70;;;26.80;;
67640;SDS011;54434;50.096;20.082;2023-03-01T05:53:03;78.20;;;28.20;;
67640;SDS011;54434;50.096;20.082;2023-03-01T05:55:42;77.80;;;28.90;;
67640;SDS011;54434;50.096;20.082;2023-03-01T05:58:21;73.70;;;28.10;;
67640;SDS011;54434;50.096;20.082;2023-03-01T06:00:57;66.60;;;27.30;;
67640;SDS011;54434;50.096;20.082;2023-03-01T06:03:34;68.70;;;26.70;;
67640;SDS011;54434;50.096;20.082;2023-03-01T06:06:10;84.10;;;30.10;;
67640;SDS011;54434;50.096;20.082;2023-03-01T06:08:48;81.70;;;28.50;;
67640;SDS011;54434;50.096;20.082;2023-03-01T06:11:25;75.40;;;28.60;;
67640;SDS011;54434;50.096;20.082;2023-03-01T06:14:01;72.70;;;28.40;;
67640;SDS011;54434;50.096;20.082;2023-03-01T06:16:39;80.10;;;28.60;;
67640;SDS011;54434;50.096;20.082;2023-03-01T06:19:16;77.90;;;30.40;;
67640;SDS011;54434;50.096;20.082;2023-03-01T06:21:52;84.60;;;30.10;;
67640;SDS011;54434;50.096;20.082;2023-03-01T06:24:28;78.30;;;30.20;;
67640;SDS011;54434;50.096;20.082;2023-03-01T06:27:06;77.50;;;28.50;;
67640;SDS011;54434;50.096;20.082;2023-03-01T06:29:42;86.20;;;32.60;;
67640;SDS011;54434;50.096;20.082;2023-03-01T06:32:19;95.40;;;33.70;;
67640;SDS011;54434;50.096;20.082;2023-03-01T06:34:55;84.90;;;33.10;;
67640;SDS011;54434;50.096;20.082;2023-03-01T06:37:32;76.30;;;31.40;;
67640;SDS011;54434;50.096;20.082;2023-03-01T06:40:12;76.90;;;32.20;;
67640;SDS011;54434;50.096;20.082;2023-03-01T06:42:51;82.00;;;32.30;;
67640;SDS011;54434;50.096;20.082;2023-03-01T06:45:28;81.60;;;31.20;;
67640;SDS011;54434;50.096;20.082;2023-03-01T06:48:07;81.70;;;31.80;;
67640;SDS011;54434;50.096;20.082;2023-03-01T06:50:43;88.00;;;34.10;;
67640;SDS011;54434;50.096;20.082;2023-03-01T06:53:20;78.40;;;31.30;;
67640;SDS011;54434;50.096;20.082;2023-03-01T06:55:58;77.10;;;33.00;;
67640;SDS011;54434;50.096;20.082;2023-03-01T06:58:35;68.20;;;30.40;;
67640;SDS011;54434;50.096;20.082;2023-03-01T07:01:12;61.20;;;27.90;;
67640;SDS011;54434;50.096;20.082;2023-03-01T07:03:48;92.10;;;38.30;;
67640;SDS011;54434;50.096;20.082;2023-03-01T07:06:25;70.90;;;31.10;;
67640;SDS011;54434;50.096;20.082;2023-03-01T07:09:02;64.70;;;29.60;;
67640;SDS011;54434;50.096;20.082;2023-03-01T07:11:39;68.30;;;31.10;;
67640;SDS011;54434;50.096;20.082;2023-03-01T07:14:16;68.60;;;30.80;;
67640;SDS011;54434;50.096;20.082;2023-03-01T07:16:53;71.50;;;31.90;;
67640;SDS011;54434;50.096;20.082;2023-03-01T07:19:29;72.00;;;31.70;;
67640;SDS011;54434;50.096;20.082;2023-03-01T07:22:07;62.30;;;30.60;;
67640;SDS011;54434;50.096;20.082;2023-03-01T07:24:44;71.80;;;31.70;;
67640;SDS011;54434;50.096;20.082;2023-03-01T07:27:20;67.60;;;28.90;;
67640;SDS011;54434;50.096;20.082;2023-03-01T07:29:57;65.80;;;31.70;;
67640;SDS011;54434;50.096;20.082;2023-03-01T07:32:33;61.30;;;30.00;;
67640;SDS011;54434;50.096;20.082;2023-03-01T07:35:11;65.90;;;29.80;;
67640;SDS011;54434;50.096;20.082;2023-03-01T07:37:48;193.40;;;80.00;;
67640;SDS011;54434;50.096;20.082;2023-03-01T07:40:24;74.10;;;33.50;;
67640;SDS011;54434;50.096;20.082;2023-03-01T07:43:01;78.60;;;32.90;;
67640;SDS011;54434;50.096;20.082;2023-03-01T07:45:37;70.40;;;31.10;;
67640;SDS011;54434;50.096;20.082;2023-03-01T07:48:14;58.40;;;27.90;;
67640;SDS011;54434;50.096;20.082;2023-03-01T07:50:50;53.60;;;26.70;;
67640;SDS011;54434;50.096;20.082;2023-03-01T07:53:26;52.60;;;26.10;;
67640;SDS011;54434;50.096;20.082;2023-03-01T07:56:07;51.30;;;26.20;;
67640;SDS011;54434;50.096;20.082;2023-03-01T07:58:45;65.80;;;31.00;;
67640;SDS011;54434;50.096;20.082;2023-03-01T08:01:23;49.80;;;27.10;;
67640;SDS011;54434;50.096;20.082;2023-03-01T08:04:00;64.80;;;29.20;;
67640;SDS011;54434;50.096;20.082;2023-03-01T08:06:40;69.00;;;30.20;;
67640;SDS011;54434;50.096;20.082;2023-03-01T08:09:16;66.10;;;29.20;;
67640;SDS011;54434;50.096;20.082;2023-03-01T08:11:52;67.30;;;29.90;;
67640;SDS011;54434;50.096;20.082;2023-03-01T08:14:30;60.60;;;28.60;;
67640;SDS011;54434;50.096;20.082;2023-03-01T08:17:07;61.90;;;27.90;;
67640;SDS011;54434;50.096;20.082;2023-03-01T08:19:43;56.20;;;27.30;;
67640;SDS011;54434;50.096;20.082;2023-03-01T08:22:20;64.90;;;30.00;;
67640;SDS011;54434;50.096;20.082;2023-03-01T08:24:56;55.70;;;27.40;;
67640;SDS011;54434;50.096;20.082;2023-03-01T08:27:32;63.80;;;29.10;;
67640;SDS011;54434;50.096;20.082;2023-03-01T08:30:13;54.00;;;26.30;;
67640;SDS011;54434;50.096;20.082;2023-03-01T08:32:49;52.20;;;26.30;;
67640;SDS011;54434;50.096;20.082;2023-03-01T08:35:26;51.00;;;24.10;;
67640;SDS011;54434;50.096;20.082;2023-03-01T08:38:02;53.70;;;25.40;;
67640;SDS011;54434;50.096;20.082;2023-03-01T08:40:39;49.10;;;24.50;;
67640;SDS011;54434;50.096;20.082;2023-03-01T08:43:15;56.30;;;25.90;;
67640;SDS011;54434;50.096;20.082;2023-03-01T08:45:55;45.70;;;25.00;;
67640;SDS011;54434;50.096;20.082;2023-03-01T08:48:31;43.00;;;22.70;;
67640;SDS011;54434;50.096;20.082;2023-03-01T08:51:13;40.00;;;19.90;;
67640;SDS011;54434;50.096;20.082;2023-03-01T08:53:54;35.40;;;18.00;;
67640;SDS011;54434;50.096;20.082;2023-03-01T08:56:31;36.30;;;18.60;;
67640;SDS011;54434;50.096;20.082;2023-03-01T08:59:08;39.50;;;19.80;;
67640;SDS011;54434;50.096;20.082;2023-03-01T09:01:46;45.10;;;22.10;;
67640;SDS011;54434;50.096;20.082;2023-03-01T09:04:23;50.10;;;24.00;;
67640;SDS011;54434;50.096;20.082;2023-03-01T09:07:00;45.60;;;21.70;;
67640;SDS011;54434;50.096;20.082;2023-03-01T09:09:36;42.30;;;21.20;;
67640;SDS011;54434;50.096;20.082;2023-03-01T09:12:13;42.70;;;21.10;;
67640;SDS011;54434;50.096;20.082;2023-03-01T09:14:50;45.10;;;21.50;;
67640;SDS011;54434;50.096;20.082;2023-03-01T09:17:26;43.50;;;20.80;;
67640;SDS011;54434;50.096;20.082;2023-03-01T09:20:04;42.70;;;21.30;;
67640;SDS011;54434;50.096;20.082;2023-03-01T09:22:41;42.90;;;20.80;;
67640;SDS011;54434;50.096;20.082;2023-03-01T09:25:18;38.50;;;18.70;;
67640;SDS011;54434;50.096;20.082;2023-03-01T09:27:55;34.50;;;18.60;;
67640;SDS011;54434;50.096;20.082;2023-03-01T09:30:32;32.80;;;16.70;;
67640;SDS011;54434;50.096;20.082;2023-03-01T09:33:09;39.50;;;16.30;;
67640;SDS011;54434;50.096;20.082;2023-03-01T09:35:47;36.10;;;17.40;;
67640;SDS011;54434;50.096;20.082;2023-03-01T09:38:24;33.70;;;15.00;;
67640;SDS011;54434;50.096;20.082;2023-03-01T09:41:02;32.50;;;15.10;;
67640;SDS011;54434;50.096;20.082;2023-03-01T09:43:47;32.40;;;17.20;;
67640;SDS011;54434;50.096;20.082;2023-03-01T09:46:29;31.80;;;16.70;;
67640;SDS011;54434;50.096;20.082;2023-03-01T09:52:01;25.30;;;13.30;;
67640;SDS011;54434;50.096;20.082;2023-03-01T09:54:44;28.90;;;12.70;;
67640;SDS011;54434;50.096;20.082;2023-03-01T09:57:29;29.50;;;13.60;;
67640;SDS011;54434;50.096;20.082;2023-03-01T10:00:39;26.00;;;13.00;;
67640;SDS011;54434;50.096;20.082;2023-03-01T10:03:27;30.00;;;13.70;;
67640;SDS011;54434;50.096;20.082;2023-03-01T10:06:15;28.10;;;12.50;;
67640;SDS011;54434;50.096;20.082;2023-03-01T10:09:12;23.20;;;12.40;;
67640;SDS011;54434;50.096;20.082;2023-03-01T10:11:54;21.80;;;11.20;;
67640;SDS011;54434;50.096;20.082;2023-03-01T10:14:35;26.50;;;12.50;;
67640;SDS011;54434;50.096;20.082;2023-03-01T10:17:23;22.50;;;10.50;;
67640;SDS011;54434;50.096;20.082;2023-03-01T10:20:23;22.00;;;10.90;;
67640;SDS011;54434;50.096;20.082;2023-03-01T10:23:00;25.90;;;13.00;;
67640;SDS011;54434;50.096;20.082;2023-03-01T10:25:51;19.20;;;10.10;;
67640;SDS011;54434;50.096;20.082;2023-03-01T10:28:49;24.40;;;12.80;;
67640;SDS011;54434;50.096;20.082;2023-03-01T10:31:43;31.90;;;15.20;;
67640;SDS011;54434;50.096;20.082;2023-03-01T10:34:27;27.80;;;14.90;;
67640;SDS011;54434;50.096;20.082;2023-03-01T10:37:15;30.90;;;15.40;;
67640;SDS011;54434;50.096;20.082;2023-03-01T10:40:04;28.80;;;15.20;;
67640;SDS011;54434;50.096;20.082;2023-03-01T10:42:48;31.30;;;16.30;;
67640;SDS011;54434;50.096;20.082;2023-03-01T10:45:36;31.70;;;16.20;;
67640;SDS011;54434;50.096;20.082;2023-03-01T10:48:17;34.10;;;17.80;;
67640;SDS011;54434;50.096;20.082;2023-03-01T10:51:12;39.80;;;20.50;;
67640;SDS011;54434;50.096;20.082;2023-03-01T10:53:53;41.80;;;21.60;;
67640;SDS011;54434;50.096;20.082;2023-03-01T10:56:30;32.60;;;17.80;;
67640;SDS011;54434;50.096;20.082;2023-03-01T10:59:30;42.00;;;22.10;;
67640;SDS011;54434;50.096;20.082;2023-03-01T11:02:22;43.30;;;22.30;;
67640;SDS011;54434;50.096;20.082;2023-03-01T11:05:16;40.10;;;19.20;;
67640;SDS011;54434;50.096;20.082;2023-03-01T11:07:58;40.30;;;21.40;;
67640;SDS011;54434;50.096;20.082;2023-03-01T11:10:37;45.10;;;21.30;;
67640;SDS011;54434;50.096;20.082;2023-03-01T11:13:18;39.80;;;20.50;;
67640;SDS011;54434;50.096;20.082;2023-03-01T11:16:03;38.80;;;20.30;;
67640;SDS011;54434;50.096;20.082;2023-03-01T11:18:45;37.20;;;18.40;;
67640;SDS011;54434;50.096;20.082;2023-03-01T11:21:34;36.50;;;16.60;;
67640;SDS011;54434;50.096;20.082;2023-03-01T11:24:16;35.70;;;18.20;;
67640;SDS011;54434;50.096;20.082;2023-03-01T11:26:55;32.70;;;16.40;;
67640;SDS011;54434;50.096;20.082;2023-03-01T11:29:38;32.80;;;16.00;;
67640;SDS011;54434;50.096;20.082;2023-03-01T11:32:24;33.10;;;15.30;;
67640;SDS011;54434;50.096;20.082;2023-03-01T11:35:08;33.20;;;18.30;;
67640;SDS011;54434;50.096;20.082;2023-03-01T11:38:02;35.70;;;17.90;;
67640;SDS011;54434;50.096;20.082;2023-03-01T11:40:51;30.80;;;16.00;;
67640;SDS011;54434;50.096;20.082;2023-03-01T11:43:41;31.10;;;14.90;;
67640;SDS011;54434;50.096;20.082;2023-03-01T11:50:13;31.20;;;16.00;;
67640;SDS011;54434;50.096;20.082;2023-03-01T11:53:13;30.20;;;14.70;;
67640;SDS011;54434;50.096;20.082;2023-03-01T11:56:19;28.60;;;14.80;;
67640;SDS011;54434;50.096;20.082;2023-03-01T11:59:27;27.60;;;16.50;;
67640;SDS011;54434;50.096;20.082;2023-03-01T12:06:10;24.90;;;14.10;;
67640;SDS011;54434;50.096;20.082;2023-03-01T12:09:55;26.40;;;13.80;;
67640;SDS011;54434;50.096;20.082;2023-03-01T12:12:58;26.00;;;13.60;;
67640;SDS011;54434;50.096;20.082;2023-03-01T12:16:26;34.30;;;16.30;;
67640;SDS011;54434;50.096;20.082;2023-03-01T12:19:34;26.00;;;13.50;;
67640;SDS011;54434;50.096;20.082;2023-03-01T12:22:31;31.90;;;14.40;;
67640;SDS011;54434;50.096;20.082;2023-03-01T12:25:36;28.20;;;14.30;;
67640;SDS011;54434;50.096;20.082;2023-03-01T12:28:51;33.80;;;17.40;;
67640;SDS011;54434;50.096;20.082;2023-03-01T12:31:49;31.20;;;15.20;;
67640;SDS011;54434;50.096;20.082;2023-03-01T12:35:05;34.80;;;17.90;;
67640;SDS011;54434;50.096;20.082;2023-03-01T12:37:56;32.10;;;16.70;;
67640;SDS011;54434;50.096;20.082;2023-03-01T12:41:08;35.60;;;16.40;;
67640;SDS011;54434;50.096;20.082;2023-03-01T12:44:35;33.00;;;16.60;;
67640;SDS011;54434;50.096;20.082;2023-03-01T12:47:44;28.30;;;14.90;;
67640;SDS011;54434;50.096;20.082;2023-03-01T12:50:37;32.20;;;14.00;;
67640;SDS011;54434;50.096;20.082;2023-03-01T12:53:25;31.40;;;15.90;;
67640;SDS011;54434;50.096;20.082;2023-03-01T12:56:08;36.20;;;16.60;;
67640;SDS011;54434;50.096;20.082;2023-03-01T12:59:01;34.90;;;16.00;;
67640;SDS011;54434;50.096;20.082;2023-03-01T13:01:51;30.10;;;15.00;;
67640;SDS011;54434;50.096;20.082;2023-03-01T13:04:43;26.60;;;14.10;;
67640;SDS011;54434;50.096;20.082;2023-03-01T13:07:35;23.60;;;12.80;;
67640;SDS011;54434;50.096;20.082;2023-03-01T13:10:29;25.70;;;13.50;;
67640;SDS011;54434;50.096;20.082;2023-03-01T13:13:21;27.80;;;13.20;;
67640;SDS011;54434;50.096;20.082;2023-03-01T13:16:21;28.20;;;13.80;;
67640;SDS011;54434;50.096;20.082;2023-03-01T13:19:16;33.50;;;15.10;;
67640;SDS011;54434;50.096;20.082;2023-03-01T13:21:55;23.70;;;13.10;;
67640;SDS011;54434;50.096;20.082;2023-03-01T13:24:36;27.70;;;13.40;;
67640;SDS011;54434;50.096;20.082;2023-03-01T13:27:25;27.60;;;14.40;;
67640;SDS011;54434;50.096;20.082;2023-03-01T13:30:04;29.30;;;14.70;;
67640;SDS011;54434;50.096;20.082;2023-03-01T13:33:46;26.60;;;13.90;;
67640;SDS011;54434;50.096;20.082;2023-03-01T13:37:09;24.10;;;12.90;;
67640;SDS011;54434;50.096;20.082;2023-03-01T13:39:53;25.10;;;12.70;;
67640;SDS011;54434;50.096;20.082;2023-03-01T13:42:43;26.70;;;12.60;;
67640;SDS011;54434;50.096;20.082;2023-03-01T13:45:40;23.70;;;11.50;;
67640;SDS011;54434;50.096;20.082;2023-03-01T13:48:25;21.50;;;10.80;;
67640;SDS011;54434;50.096;20.082;2023-03-01T13:51:07;25.40;;;13.20;;
67640;SDS011;54434;50.096;20.082;2023-03-01T13:53:48;21.60;;;11.90;;
67640;SDS011;54434;50.096;20.082;2023-03-01T13:56:29;22.60;;;12.40;;
67640;SDS011;54434;50.096;20.082;2023-03-01T13:59:18;20.60;;;11.50;;
67640;SDS011;54434;50.096;20.082;2023-03-01T14:02:00;24.80;;;12.30;;
67640;SDS011;54434;50.096;20.082;2023-03-01T14:04:37;24.40;;;11.80;;
67640;SDS011;54434;50.096;20.082;2023-03-01T14:07:19;21.90;;;11.80;;
67640;SDS011;54434;50.096;20.082;2023-03-01T14:10:00;24.30;;;12.90;;
67640;SDS011;54434;50.096;20.082;2023-03-01T14:12:47;24.90;;;11.60;;
67640;SDS011;54434;50.096;20.082;2023-03-01T14:15:42;25.10;;;10.90;;
67640;SDS011;54434;50.096;20.082;2023-03-01T14:18:29;20.40;;;10.20;;
67640;SDS011;54434;50.096;20.082;2023-03-01T14:21:15;23.40;;;11.10;;
67640;SDS011;54434;50.096;20.082;2023-03-01T14:23:52;18.50;;;10.20;;
67640;SDS011;54434;50.096;20.082;2023-03-01T14:26:29;20.50;;;10.30;;
67640;SDS011;54434;50.096;20.082;2023-03-01T14:29:13;21.30;;;10.40;;
67640;SDS011;54434;50.096;20.082;2023-03-01T14:32:16;24.00;;;11.30;;
67640;SDS011;54434;50.096;20.082;2023-03-01T14:34:56;17.20;;;9.50;;
67640;SDS011;54434;50.096;20.082;2023-03-01T14:37:34;18.90;;;9.40;;
67640;SDS011;54434;50.096;20.082;2023-03-01T14:40:28;18.90;;;8.00;;
67640;SDS011;54434;50.096;20.082;2023-03-01T14:43:19;15.20;;;7.10;;
67640;SDS011;54434;50.096;20.082;2023-03-01T14:45:59;19.40;;;8.80;;
67640;SDS011;54434;50.096;20.082;2023-03-01T14:48:36;17.00;;;8.90;;
67640;SDS011;54434;50.096;20.082;2023-03-01T14:51:13;18.60;;;9.10;;
67640;SDS011;54434;50.096;20.082;2023-03-01T14:53:50;19.20;;;8.20;;
67640;SDS011;54434;50.096;20.082;2023-03-01T14:56:28;17.70;;;7.70;;
67640;SDS011;54434;50.096;20.082;2023-03-01T15:01:59;16.70;;;7.60;;
67640;SDS011;54434;50.096;20.082;2023-03-01T15:04:36;16.60;;;7.60;;
67640;SDS011;54434;50.096;20.082;2023-03-01T15:07:15;16.10;;;7.50;;
67640;SDS011;54434;50.096;20.082;2023-03-01T15:09:52;17.10;;;8.30;;
67640;SDS011;54434;50.096;20.082;2023-03-01T15:12:42;15.90;;;7.80;;
67640;SDS011;54434;50.096;20.082;2023-03-01T15:15:35;18.30;;;9.50;;
67640;SDS011;54434;50.096;20.082;2023-03-01T15:18:22;18.90;;;10.90;;
67640;SDS011;54434;50.096;20.082;2023-03-01T15:21:15;17.70;;;9.10;;
67640;SDS011;54434;50.096;20.082;2023-03-01T15:24:05;19.80;;;8.70;;
67640;SDS011;54434;50.096;20.082;2023-03-01T15:26:57;20.90;;;9.00;;
67640;SDS011;54434;50.096;20.082;2023-03-01T15:29:40;18.50;;;9.60;;
67640;SDS011;54434;50.096;20.082;2023-03-01T15:32:29;22.10;;;10.30;;
67640;SDS011;54434;50.096;20.082;2023-03-01T15:35:41;19.70;;;9.00;;
67640;SDS011;54434;50.096;20.082;2023-03-01T15:38:52;20.10;;;9.60;;
67640;SDS011;54434;50.096;20.082;2023-03-01T15:41:32;19.00;;;8.60;;
67640;SDS011;54434;50.096;20.082;2023-03-01T15:44:30;21.80;;;9.60;;
67640;SDS011;54434;50.096;20.082;2023-03-01T15:47:33;19.50;;;8.90;;
67640;SDS011;54434;50.096;20.082;2023-03-01T15:50:21;18.90;;;9.30;;
67640;SDS011;54434;50.096;20.082;2023-03-01T15:52:59;18.30;;;9.90;;
67640;SDS011;54434;50.096;20.082;2023-03-01T15:55:40;22.80;;;9.30;;
67640;SDS011;54434;50.096;20.082;2023-03-01T16:02:11;20.10;;;9.00;;